KGDJ

Granbury Regional Airport

Granbury, Texas, USA
METAR KGDJ 161435Z AUTO 00000KT 10SM CLR 04/00 A3014 RMK AO2 T00441002
Observed Flight Rules
Dec-16 @ 14:35 UTC (24 minutes ago) Visual Flight Rules
Wind Visibility Clouds
Calm 10 miles
  • Clear skies
Temperatures Readings
Current 4°C / 39°F
Dewpoint -0°C / 32°F
Humidity 75%
Altimeter 30.14" Hg
Pressure 1021 hPa
Elevation 237
METAR KGDJ 161435Z AUTO 00000KT 10SM CLR 04/00 A3014 RMK AO2 T00441002
Observed Flight Rules
Dec-16 @ 14:35 UTC
(24 minutes ago)
VFR
Wind Visibility
Calm 10 miles
Clouds
  • Clear skies
Temperature Dewpoint
4°C / 39°F -0°C / 32°F
Humidity Altimeter Pressure
75% 30.14" Hg 1021 hPa